| time (UTC) | temp F | wind direction | speed MPH | gust MPH | rain 1hr in | rain 24hr in | rain mn in | humidity % | barometer mb |
| 20260508191540 | 56 | 43 | 8.0 | 14.0 | 0.00 | 0.44 | 0.00 | 63 | 1000.8 |
| 20260508190036 | 56 | 40 | 10.0 | 15.0 | 0.00 | 0.44 | 0.00 | 59 | 1000.6 |
| 20260508184535 | 55 | 36 | 8.0 | 15.0 | 0.00 | 0.70 | 0.00 | 65 | 1000.8 |
| 20260508183034 | 54 | 61 | 12.0 | 16.0 | 0.00 | 0.70 | 0.00 | 68 | 1000.9 |
| 20260508181534 | 54 | 68 | 14.0 | 18.0 | 0.00 | 0.70 | 0.00 | 67 | 1000.9 |
| 20260508180041 | 55 | 71 | 11.0 | 17.0 | 0.00 | 0.70 | 0.00 | 65 | 1000.9 |
| 20260508174539 | 54 | 78 | 9.0 | 15.0 | 0.00 | 0.71 | 0.00 | 68 | 1001.1 |
| 20260508173035 | 55 | 51 | 10.0 | 14.0 | 0.00 | 0.71 | 0.00 | 67 | 1001.2 |
| 20260508171542 | 55 | 41 | 9.0 | 13.0 | 0.00 | 0.71 | 0.00 | 68 | 1001.3 |
| 20260508170043 | 54 | 57 | 7.0 | 13.0 | 0.00 | 0.71 | 0.00 | 67 | 1001.2 |
| 20260508164543 | 54 | 46 | 7.0 | 12.0 | 0.00 | 0.71 | 0.00 | 70 | 1001.2 |
| 20260508163041 | 53 | 42 | 8.0 | 14.0 | 0.00 | 0.71 | 0.00 | 70 | 1001.2 |
| 20260508161535 | 53 | 58 | 10.0 | 14.0 | 0.00 | 0.71 | 0.00 | 70 | 1000.9 |
| 20260508160037 | 54 | 15 | 9.0 | 14.0 | 0.00 | 0.71 | 0.00 | 69 | 1001.0 |
| 20260508154541 | 54 | 74 | 6.0 | 14.0 | 0.00 | 0.71 | 0.00 | 68 | 1001.0 |
| 20260508153037 | 54 | 55 | 10.0 | 14.0 | 0.00 | 0.71 | 0.00 | 73 | 1001.0 |
| 20260508151541 | 53 | 57 | 9.0 | 18.0 | 0.00 | 0.71 | 0.00 | 76 | 1001.2 |
| 20260508150041 | 52 | 71 | 14.0 | 17.0 | 0.00 | 0.71 | 0.00 | 75 | 1001.4 |
| 20260508144537 | 52 | 67 | 12.0 | 16.0 | 0.00 | 0.71 | 0.00 | 77 | 1001.4 |
| 20260508143034 | 49 | 192 | 2.0 | 9.0 | 0.00 | 0.71 | 0.00 | 84 | 1002.0 |
| 20260508141536 | 52 | 71 | 6.0 | 10.0 | 0.00 | 0.71 | 0.00 | 85 | 1001.9 |
| 20260508140035 | 50 | 83 | 2.0 | 8.0 | 0.00 | 0.71 | 0.00 | 90 | 1002.6 |
| 20260508134535 | 50 | 84 | 7.0 | 11.0 | 0.00 | 0.71 | 0.00 | 90 | 1002.6 |
| 20260508133034 | 49 | 214 | 2.0 | 7.0 | 0.00 | 0.71 | 0.00 | 95 | 1002.3 |
| 20260508131539 | 49 | 236 | 3.0 | 11.0 | 0.00 | 0.71 | 0.00 | 96 | 1002.2 |
| 20260508130036 | 44 | 90 | 9.0 | 12.0 | 0.00 | 0.71 | 0.00 | 95 | 1002.3 |
| 20260508124534 | 43 | 82 | 9.0 | 12.0 | 0.00 | 0.73 | 0.00 | 95 | 1002.3 |
| 20260508123034 | 43 | 104 | 7.0 | 13.0 | 0.00 | 0.73 | 0.00 | 96 | 1002.2 |
| 20260508121535 | 43 | 96 | 8.0 | 10.0 | 0.00 | 0.73 | 0.00 | 96 | 1002.4 |
| 20260508120040 | 43 | 83 | 7.0 | 10.0 | 0.00 | 0.73 | 0.00 | 96 | 1002.6 |
| 20260508114541 | 44 | 88 | 6.0 | 9.0 | 0.00 | 0.77 | 0.00 | 96 | 1002.2 |
| 20260508113041 | 43 | 172 | 1.0 | 4.0 | 0.00 | 0.77 | 0.00 | 97 | 1002.4 |
| 20260508111542 | 44 | 0 | 0.0 | 3.0 | 0.00 | 0.77 | 0.00 | 97 | 1002.6 |
| 20260508110041 | 42 | 0 | 0.0 | 3.0 | 0.00 | 0.77 | 0.00 | 97 | 1003.0 |
| 20260508104541 | 41 | 0 | 0.0 | 3.0 | 0.00 | 0.77 | 0.00 | 97 | 1002.9 |
| 20260508103041 | 42 | 0 | 0.0 | 3.0 | 0.00 | 0.77 | 0.00 | 97 | 1003.0 |
| 20260508101536 | 41 | 256 | 1.0 | 4.0 | 0.00 | 0.77 | 0.00 | 97 | 1002.6 |
| 20260508100035 | 41 | 296 | 3.0 | 7.0 | 0.00 | 0.77 | 0.00 | 97 | 1002.6 |
| 20260508094535 | 40 | 257 | 2.0 | 3.0 | 0.00 | 0.77 | 0.00 | 97 | 1002.6 |
| 20260508093041 | 40 | 347 | 1.0 | 4.0 | 0.00 | 0.77 | 0.00 | 97 | 1002.3 |
| 20260508091550 | 39 | 102 | 0.0 | 3.0 | 0.00 | 0.77 | 0.00 | 97 | 1002.5 |
| 20260508090042 | 39 | 103 | 0.0 | 4.0 | 0.00 | 0.77 | 0.00 | 97 | 1002.3 |
| 20260508084535 | 39 | 273 | 1.0 | 3.0 | 0.00 | 0.77 | 0.00 | 97 | 1001.8 |
| 20260508083037 | 40 | 271 | 2.0 | 3.0 | 0.00 | 0.77 | 0.00 | 97 | 1001.7 |
| 20260508081544 | 40 | 0 | 1.0 | 3.0 | 0.00 | 0.77 | 0.00 | 97 | 1001.5 |
| 20260508080034 | 40 | 219 | 0.0 | 2.0 | 0.00 | 0.77 | 0.00 | 97 | 1001.5 |
| 20260508074534 | 40 | 219 | 2.0 | 4.0 | 0.00 | 0.77 | 0.00 | 97 | 1001.6 |
| 20260508073034 | 40 | 0 | 0.0 | 3.0 | 0.00 | 0.77 | 0.00 | 97 | 1001.7 |
| 20260508071536 | 40 | 0 | 0.0 | 3.0 | 0.00 | 0.77 | 0.00 | 97 | 1001.8 |
| 20260508070036 | 40 | 0 | 0.0 | 3.0 | 0.00 | 0.77 | 0.00 | 96 | 1001.8 |
| 20260508064536 | 41 | 263 | 1.0 | 4.0 | 0.00 | 0.77 | 0.00 | 96 | 1001.7 |
| 20260508063035 | 41 | 269 | 1.0 | 3.0 | 0.00 | 0.77 | 0.00 | 97 | 1001.8 |
| 20260508061534 | 40 | 182 | 2.0 | 3.0 | 0.00 | 0.77 | 0.00 | 96 | 1001.6 |
| 20260508060034 | 40 | 137 | 1.0 | 3.0 | 0.00 | 0.77 | 0.00 | 96 | 1001.6 |
| 20260508054541 | 41 | 173 | 1.0 | 5.0 | 0.00 | 0.77 | 0.00 | 96 | 1001.6 |
| 20260508053036 | 42 | 249 | 3.0 | 4.0 | 0.00 | 0.77 | 0.00 | 96 | 1001.6 |
| 20260508051538 | 42 | 0 | 0.0 | 3.0 | 0.00 | 0.77 | 0.00 | 97 | 1001.5 |
| 20260508050035 | 42 | 84 | 1.0 | 6.0 | 0.00 | 0.77 | 0.00 | 96 | 1001.7 |
| 20260508044541 | 42 | 252 | 1.0 | 2.0 | 0.00 | 0.77 | 0.00 | 96 | 1001.7 |
| 20260508043049 | 42 | 252 | 0.0 | 2.0 | 0.00 | 0.77 | 0.00 | 96 | 1001.7 |
| 20260508041539 | 43 | 252 | 1.0 | 7.0 | 0.00 | 0.77 | 0.00 | 96 | 1001.7 |
| 20260508040037 | 43 | 245 | 3.0 | 7.0 | 0.00 | 0.77 | 0.00 | 96 | 1001.7 |
| 20260508034547 | 43 | 237 | 4.0 | 7.0 | 0.00 | 0.77 | 0.00 | 96 | 1001.8 |
| 20260508033041 | 44 | 296 | 2.0 | 7.0 | 0.00 | 0.77 | 0.00 | 96 | 1001.8 |
| 20260508031541 | 44 | 248 | 3.0 | 6.0 | 0.00 | 0.77 | 0.00 | 96 | 1002.0 |
| 20260508030038 | 45 | 221 | 1.0 | 5.0 | 0.00 | 0.77 | 0.00 | 96 | 1002.0 |
| 20260508024535 | 46 | 5 | 4.0 | 7.0 | 0.00 | 0.77 | 0.77 | 97 | 1002.2 |
| 20260508023035 | 45 | 68 | 2.0 | 10.0 | 0.00 | 0.77 | 0.77 | 96 | 1001.9 |
| 20260508021538 | 45 | 75 | 3.0 | 6.0 | 0.00 | 0.77 | 0.77 | 96 | 1002.1 |
| 20260508020042 | 47 | 223 | 1.0 | 4.0 | 0.00 | 0.77 | 0.77 | 96 | 1002.0 |
| 20260508014534 | 50 | 302 | 5.0 | 10.0 | 0.00 | 0.77 | 0.77 | 97 | 1001.6 |
| 20260508013033 | 49 | 312 | 5.0 | 10.0 | 0.00 | 0.77 | 0.77 | 97 | 1001.5 |
| 20260508011535 | 48 | 170 | 2.0 | 10.0 | 0.00 | 0.77 | 0.77 | 97 | 1001.2 |
| 20260508010035 | 46 | 33 | 3.0 | 4.0 | 0.00 | 0.77 | 0.77 | 96 | 1001.4 |
| 20260508004538 | 46 | 15 | 3.0 | 5.0 | 0.00 | 0.77 | 0.77 | 97 | 1001.4 |
| 20260508003033 | 45 | 338 | 2.0 | 4.0 | 0.00 | 0.77 | 0.77 | 97 | 1001.6 |
| 20260508001533 | 46 | 100 | 7.0 | 10.0 | 0.00 | 0.77 | 0.77 | 96 | 1001.5 |
| 20260508000040 | 46 | 313 | 1.0 | 8.0 | 0.00 | 0.77 | 0.77 | 96 | 1001.7 |
| 20260507234539 | 47 | 156 | 9.0 | 12.0 | 0.00 | 0.77 | 0.77 | 97 | 1001.4 |
| 20260507233034 | 47 | 66 | 2.0 | 4.0 | 0.00 | 0.77 | 0.77 | 96 | 1001.4 |
| 20260507231540 | 47 | 24 | 2.0 | 4.0 | 0.00 | 0.77 | 0.77 | 96 | 1001.5 |
| 20260507230033 | 46 | 53 | 3.0 | 5.0 | 0.00 | 0.77 | 0.77 | 96 | 1001.7 |
| 20260507224535 | 46 | 90 | 3.0 | 8.0 | 0.00 | 0.77 | 0.77 | 96 | 1001.4 |
| 20260507223035 | 47 | 133 | 1.0 | 5.0 | 0.00 | 0.77 | 0.77 | 96 | 1001.3 |
| 20260507221534 | 45 | 44 | 2.0 | 5.0 | 0.00 | 0.77 | 0.77 | 97 | 1001.7 |
| 20260507220041 | 44 | 120 | 10.0 | 15.0 | 0.00 | 0.77 | 0.77 | 95 | 1001.8 |
| 20260507214541 | 46 | 106 | 3.0 | 9.0 | 0.01 | 0.77 | 0.77 | 95 | 1002.0 |
| 20260507213045 | 46 | 119 | 12.0 | 15.0 | 0.04 | 0.77 | 0.77 | 95 | 1001.7 |
| 20260507211536 | 48 | 200 | 7.0 | 14.0 | 0.13 | 0.77 | 0.77 | 95 | 1002.5 |
| 20260507210045 | 49 | 189 | 7.0 | 15.0 | 0.17 | 0.77 | 0.77 | 96 | 1001.8 |
| 20260507204545 | 49 | 151 | 8.0 | 13.0 | 0.23 | 0.76 | 0.76 | 96 | 1001.7 |
| 20260507203044 | 49 | 146 | 8.0 | 14.0 | 0.25 | 0.72 | 0.72 | 97 | 1002.6 |
| 20260507201541 | 48 | 154 | 11.0 | 15.0 | 0.24 | 0.64 | 0.64 | 97 | 1002.7 |
| 20260507200038 | 48 | 136 | 10.0 | 13.0 | 0.25 | 0.59 | 0.59 | 95 | 1003.0 |
| 20260507194536 | 52 | 153 | 6.0 | 16.0 | 0.26 | 0.52 | 0.52 | 93 | 1003.6 |
| 20260507193034 | 53 | 229 | 8.0 | 15.0 | 0.33 | 0.46 | 0.46 | 97 | 1003.9 |